Time;durP1;ratioP1;P1;durP2;ratioP2;P2;SDS_P1;SDS_P2;PMS_P1;PMS_P2;Temp;Humidity;BMP_temperature;BMP_pressure;BME280_temperature;BME280_humidity;BME280_pressure;Samples;Min_cycle;Max_cycle;Signal;HPM_P1;HPM_P2
2022/01/01 00:02:16;;;;;;;325.67;145.52;;;;;;;9.68;100.00;102355.69;4841819;29;20129;-72
2022/01/01 00:04:42;;;;;;;144.27;71.05;;;;;;;9.69;100.00;102359.22;4840523;29;20052;-73
2022/01/01 00:07:11;;;;;;;124.05;62.92;;;;;;;9.71;100.00;102345.97;4838377;29;20051;-73
2022/01/01 00:09:36;;;;;;;134.45;67.60;;;;;;;9.69;100.00;102348.63;4825084;29;20034;-73
2022/01/01 00:12:02;;;;;;;149.90;75.60;;;;;;;9.72;100.00;102337.13;4828700;29;20044;-74
2022/01/01 00:14:29;;;;;;;162.45;84.13;;;;;;;9.74;100.00;102322.97;4842271;29;20508;-75
2022/01/01 00:16:54;;;;;;;143.38;70.40;;;;;;;9.72;100.00;102329.19;4841628;29;20030;-74
2022/01/01 00:19:20;;;;;;;158.30;76.40;;;;;;;9.71;100.00;102325.69;4843042;29;20042;-74
2022/01/01 00:21:45;;;;;;;159.00;77.68;;;;;;;9.75;100.00;102330.00;4841013;29;20141;-73
2022/01/01 00:24:11;;;;;;;146.15;69.25;;;;;;;9.77;100.00;102332.63;4842354;29;20109;-74
2022/01/01 00:26:36;;;;;;;136.82;62.67;;;;;;;9.79;100.00;102338.78;4841854;29;20470;-73
2022/01/01 00:29:02;;;;;;;124.68;54.78;;;;;;;9.82;100.00;102330.78;4842460;29;20487;-73
2022/01/01 00:31:29;;;;;;;174.50;86.28;;;;;;;9.86;100.00;102334.22;4842538;29;20037;-73
2022/01/01 00:33:54;;;;;;;146.27;71.75;;;;;;;9.89;100.00;102343.00;4842335;29;20030;-73
2022/01/01 00:36:20;;;;;;;124.75;58.97;;;;;;;9.92;100.00;102342.06;4842002;29;20275;-73
2022/01/01 00:38:45;;;;;;;124.57;60.90;;;;;;;9.92;100.00;102334.13;4842474;29;20109;-74
2022/01/01 00:41:10;;;;;;;134.32;60.38;;;;;;;9.93;100.00;102328.81;4842350;29;20029;-74
2022/01/01 00:43:36;;;;;;;255.38;139.10;;;;;;;10.01;100.00;102328.66;4841768;29;20033;-76
2022/01/01 00:46:01;;;;;;;115.05;56.25;;;;;;;9.99;100.00;102322.53;4842544;29;20091;-74
2022/01/01 00:48:26;;;;;;;122.63;55.70;;;;;;;10.06;100.00;102318.84;4841480;29;20037;-74
2022/01/01 00:50:52;;;;;;;291.88;150.38;;;;;;;10.06;100.00;102315.34;4842094;29;20112;-77
2022/01/01 00:53:17;;;;;;;249.55;130.65;;;;;;;10.06;100.00;102312.72;4842117;29;20038;-74
2022/01/01 00:55:43;;;;;;;211.30;111.20;;;;;;;10.00;100.00;102314.56;4841753;29;20030;-77
2022/01/01 00:58:08;;;;;;;148.65;67.35;;;;;;;9.96;100.00;102328.78;4839907;29;20057;-77
2022/01/01 01:00:33;;;;;;;134.05;63.00;;;;;;;9.91;100.00;102342.97;4842040;29;20038;-75
2022/01/01 01:02:59;;;;;;;197.27;96.70;;;;;;;9.84;100.00;102350.16;4842264;29;20030;-72
2022/01/01 01:05:24;;;;;;;146.27;62.25;;;;;;;9.80;100.00;102353.75;4842057;29;20506;-77
2022/01/01 01:07:50;;;;;;;169.93;83.63;;;;;;;9.76;100.00;102363.50;4841463;29;20407;-77
2022/01/01 01:10:15;;;;;;;254.05;132.32;;;;;;;9.79;100.00;102360.78;4842106;29;20376;-74
2022/01/01 01:12:44;;;;;;;126.82;55.60;;;;;;;9.89;100.00;102364.16;4841859;29;20551;-73
2022/01/01 01:15:17;;;;;;;128.98;55.08;;;;;;;9.99;100.00;102364.88;4841409;29;20388;-73
2022/01/01 01:17:43;;;;;;;138.88;63.33;;;;;;;10.06;100.00;102371.78;4842171;29;20109;-74
2022/01/01 01:20:10;;;;;;;111.50;40.03;;;;;;;10.12;100.00;102360.25;4841917;29;20030;-74
2022/01/01 01:22:35;;;;;;;117.78;49.70;;;;;;;10.19;100.00;102351.25;4842045;29;20034;-73
2022/01/01 01:25:01;;;;;;;157.93;76.20;;;;;;;10.25;100.00;102361.75;4841729;29;20502;-73
2022/01/01 01:27:28;;;;;;;150.18;72.45;;;;;;;10.28;100.00;102355.50;4841468;29;20038;-73
2022/01/01 01:29:53;;;;;;;87.47;36.70;;;;;;;10.31;100.00;102356.34;4841204;29;20030;-73
2022/01/01 01:32:19;;;;;;;83.22;36.25;;;;;;;10.37;100.00;102351.84;4841207;29;20098;-74
2022/01/01 01:34:44;;;;;;;69.03;25.20;;;;;;;10.42;100.00;102357.94;4841665;29;20041;-74
2022/01/01 01:37:09;;;;;;;67.22;23.27;;;;;;;10.42;100.00;102355.28;4841391;29;20033;-73
2022/01/01 01:39:35;;;;;;;57.00;22.35;;;;;;;10.47;100.00;102362.25;4841508;29;20088;-73
2022/01/01 01:42:00;;;;;;;51.10;19.25;;;;;;;10.52;100.00;102351.53;4841861;29;20038;-73
2022/01/01 01:44:33;;;;;;;51.28;22.52;;;;;;;10.57;100.00;102354.97;4841407;29;20460;-74
2022/01/01 01:47:01;;;;;;;57.90;25.13;;;;;;;10.58;100.00;102364.66;4841205;29;20030;-73
2022/01/01 01:49:28;;;;;;;50.45;19.63;;;;;;;10.59;100.00;102363.78;4841425;29;20471;-74
2022/01/01 01:51:54;;;;;;;50.70;19.15;;;;;;;10.66;100.00;102359.22;4841478;29;20026;-75
2022/01/01 01:54:20;;;;;;;43.97;17.52;;;;;;;10.75;100.00;102376.69;4841705;29;20045;-77
2022/01/01 01:56:47;;;;;;;38.90;16.27;;;;;;;10.77;100.00;102364.31;4841402;29;20133;-77
2022/01/01 01:59:14;;;;;;;68.57;29.23;;;;;;;10.79;100.00;102360.72;4841229;29;20034;-75
2022/01/01 02:01:39;;;;;;;47.92;17.38;;;;;;;10.81;100.00;102360.66;4841050;29;20062;-77
2022/01/01 02:04:04;;;;;;;42.15;16.08;;;;;;;10.85;100.00;102364.13;4841501;29;20026;-74
2022/01/01 02:06:30;;;;;;;49.47;17.63;;;;;;;10.88;100.00;102354.34;4841414;29;20050;-73
2022/01/01 02:08:55;;;;;;;61.38;24.52;;;;;;;10.86;100.00;102353.50;4840932;29;20049;-77
2022/01/01 02:11:22;;;;;;;43.88;18.13;;;;;;;10.89;100.00;102353.41;4841419;29;20050;-74
2022/01/01 02:18:53;;;;;;;41.55;13.82;;;;;;;10.94;100.00;102340.06;4841103;29;20098;-74
2022/01/01 02:21:20;;;;;;;36.40;13.82;;;;;;;10.93;100.00;102330.38;4841160;29;20044;-74
2022/01/01 02:23:48;;;;;;;36.47;14.13;;;;;;;10.94;100.00;102337.44;4841019;29;20030;-73
2022/01/01 02:26:16;;;;;;;39.53;12.48;;;;;;;10.96;100.00;102346.22;4841328;29;20034;-74
2022/01/01 02:28:46;;;;;;;36.67;12.07;;;;;;;10.97;100.00;102343.53;4840798;29;20022;-74
2022/01/01 02:31:13;;;;;;;38.40;12.43;;;;;;;10.98;100.00;102333.78;4841222;29;20033;-74
2022/01/01 02:33:39;;;;;;;68.40;31.63;;;;;;;11.00;100.00;102342.59;4840869;29;20053;-75
2022/01/01 02:36:05;;;;;;;53.28;18.10;;;;;;;11.05;100.00;102351.31;4841304;29;20114;-73
2022/01/01 02:38:35;;;;;;;38.03;12.55;;;;;;;11.07;100.00;102349.47;4841323;29;20034;-74
2022/01/01 02:41:01;;;;;;;41.83;13.02;;;;;;;11.09;100.00;102345.03;4841122;29;20041;-73
2022/01/01 02:43:26;;;;;;;39.38;13.90;;;;;;;11.06;100.00;102353.06;4840987;29;20041;-78
2022/01/01 02:45:53;;;;;;;47.60;16.20;;;;;;;11.09;100.00;102352.13;4843587;29;20117;-78
2022/01/01 02:48:18;;;;;;;59.35;22.27;;;;;;;11.09;100.00;102350.31;4844741;29;20030;-74
2022/01/01 02:50:44;;;;;;;48.05;17.17;;;;;;;11.09;100.00;102352.97;4844165;29;20390;-73
2022/01/01 02:53:16;;;;;;;42.53;18.35;;;;;;;11.15;100.00;102355.50;4844500;29;20058;-74
2022/01/01 02:55:43;;;;;;;63.30;31.10;;;;;;;11.14;100.00;102359.03;4844047;29;20026;-75
2022/01/01 02:58:13;;;;;;;40.15;16.50;;;;;;;11.19;100.00;102353.66;4844495;29;20054;-78
2022/01/01 03:00:40;;;;;;;46.25;17.63;;;;;;;11.19;100.00;102348.34;4843884;29;20108;-74
2022/01/01 03:03:05;;;;;;;41.80;17.48;;;;;;;11.20;100.00;102344.78;4843962;29;20033;-78
2022/01/01 03:05:31;;;;;;;40.60;18.48;;;;;;;11.22;100.00;102348.25;4844053;29;20109;-75
2022/01/01 03:07:57;;;;;;;40.33;17.60;;;;;;;11.26;100.00;102352.56;4844126;29;20449;-74
2022/01/01 03:10:23;;;;;;;73.35;30.52;;;;;;;11.28;100.00;102353.44;4843769;29;20055;-74
2022/01/01 03:12:49;;;;;;;40.35;17.98;;;;;;;11.28;100.00;102341.97;4843815;29;20038;-76
2022/01/01 03:15:14;;;;;;;39.50;18.80;;;;;;;11.24;100.00;102338.50;4843395;29;20034;-73
2022/01/01 03:17:39;;;;;;;44.92;16.90;;;;;;;11.28;100.00;102342.81;4843636;29;20032;-72
2022/01/01 03:20:05;;;;;;;39.65;17.95;;;;;;;11.30;100.00;102341.00;4843719;29;20113;-72
2022/01/01 03:22:31;;;;;;;43.53;16.73;;;;;;;11.26;100.00;102334.00;4843611;29;20047;-72
2022/01/01 03:24:56;;;;;;;39.35;17.40;;;;;;;11.17;100.00;102328.06;4844185;29;20090;-75
2022/01/01 03:27:21;;;;;;;33.92;14.88;;;;;;;11.09;100.00;102326.47;4843380;29;20483;-75
2022/01/01 03:29:47;;;;;;;41.33;16.85;;;;;;;11.05;100.00;102334.50;4843718;29;20025;-74
2022/01/01 03:32:12;;;;;;;37.38;15.10;;;;;;;11.05;100.00;102321.25;4843017;29;20483;-74
2022/01/01 03:34:38;;;;;;;33.78;14.15;;;;;;;11.11;100.00;102321.13;4843893;29;20117;-75
2022/01/01 03:37:03;;;;;;;36.08;13.85;;;;;;;11.16;100.00;102316.59;4843273;29;20105;-73
2022/01/01 03:39:28;;;;;;;35.65;14.60;;;;;;;11.18;100.00;102327.16;4843702;29;20471;-74
2022/01/01 03:41:54;;;;;;;34.95;13.23;;;;;;;11.20;100.00;102320.03;4842790;29;20033;-74
2022/01/01 03:44:20;;;;;;;31.88;13.95;;;;;;;11.21;100.00;102333.25;4843434;29;20088;-74
2022/01/01 03:46:45;;;;;;;30.58;12.68;;;;;;;11.17;100.00;102326.28;4843553;29;20045;-74
2022/01/01 03:49:12;;;;;;;37.03;12.80;;;;;;;11.10;100.00;102322.03;4842465;29;20026;-74
2022/01/01 03:51:37;;;;;;;37.13;14.15;;;;;;;11.05;100.00;102329.22;4843488;29;20117;-74
2022/01/01 03:54:02;;;;;;;34.13;13.20;;;;;;;11.05;100.00;102334.50;4842973;29;20124;-73
2022/01/01 03:56:28;;;;;;;26.88;12.45;;;;;;;11.02;100.00;102334.59;4843418;29;20026;-74
2022/01/01 03:58:53;;;;;;;32.08;13.82;;;;;;;10.93;100.00;102331.25;4842845;29;20061;-74
2022/01/01 04:01:18;;;;;;;36.10;13.57;;;;;;;10.89;100.00;102337.50;4843125;29;20551;-73
2022/01/01 04:03:44;;;;;;;35.67;14.80;;;;;;;10.89;100.00;102326.06;4842767;29;20089;-74
2022/01/01 04:06:09;;;;;;;39.47;16.73;;;;;;;10.86;100.00;102337.59;4842863;29;20053;-75
2022/01/01 04:08:35;;;;;;;41.33;15.93;;;;;;;10.90;100.00;102341.06;4842861;29;20030;-74
2022/01/01 04:11:00;;;;;;;35.35;16.17;;;;;;;10.94;100.00;102334.78;4842830;29;20155;-75
2022/01/01 04:13:26;;;;;;;37.20;14.77;;;;;;;10.98;100.00;102336.44;4842991;29;20033;-73
2022/01/01 04:15:51;;;;;;;32.28;14.23;;;;;;;11.01;100.00;102341.69;4842751;29;20099;-74
2022/01/01 04:18:26;;;;;;;29.17;12.90;;;;;;;11.05;100.00;102335.41;4842678;29;20167;-74
2022/01/01 04:20:52;;;;;;;33.65;13.27;;;;;;;11.10;100.00;102332.63;4842479;29;20041;-74
2022/01/01 04:23:17;;;;;;;26.80;13.90;;;;;;;11.10;100.00;102330.88;4842609;29;20109;-73
2022/01/01 04:25:47;;;;;;;31.35;13.13;;;;;;;11.10;100.00;102340.59;4842757;29;20391;-73
2022/01/01 04:28:13;;;;;;;33.03;13.05;;;;;;;11.10;100.00;102341.47;4842692;29;20487;-74
2022/01/01 04:30:38;;;;;;;26.55;12.65;;;;;;;11.10;100.00;102346.78;4842359;29;20034;-73
2022/01/01 04:33:03;;;;;;;27.23;12.13;;;;;;;11.09;100.00;102350.31;4842589;29;20694;-73
2022/01/01 04:35:28;;;;;;;31.17;12.20;;;;;;;11.08;100.00;102358.31;4842230;29;20069;-73
2022/01/01 04:37:54;;;;;;;33.60;14.20;;;;;;;11.14;100.00;102347.59;4842642;29;20047;-72
2022/01/01 04:40:19;;;;;;;28.58;12.63;;;;;;;11.16;100.00;102361.66;4842406;29;20060;-73
2022/01/01 04:42:45;;;;;;;28.10;12.48;;;;;;;11.18;100.00;102357.19;4842356;29;20041;-73
2022/01/01 04:45:11;;;;;;;70.53;41.13;;;;;;;11.21;100.00;102365.06;4842120;29;20467;-72
2022/01/01 04:47:36;;;;;;;29.40;13.35;;;;;;;11.23;100.00;102363.28;4842705;29;20077;-74
2022/01/01 04:50:04;;;;;;;25.48;12.73;;;;;;;11.23;100.00;102349.16;4842347;29;20030;-72
2022/01/01 04:52:30;;;;;;;27.15;12.30;;;;;;;11.19;100.00;102350.09;4841657;29;20026;-74
2022/01/01 04:54:55;;;;;;;28.45;12.68;;;;;;;11.19;100.00;102355.41;4841866;29;20116;-73
2022/01/01 04:57:25;;;;;;;22.23;11.70;;;;;;;11.18;100.00;102349.25;4842394;29;20038;-73
2022/01/01 04:59:50;;;;;;;23.45;11.80;;;;;;;11.09;100.00;102350.31;4842311;29;20061;-73
2022/01/01 05:02:15;;;;;;;24.50;11.68;;;;;;;11.02;100.00;102353.16;4842089;29;20061;-73
2022/01/01 05:04:41;;;;;;;26.33;11.27;;;;;;;11.02;100.00;102347.84;4842126;29;20375;-72
2022/01/01 05:07:07;;;;;;;23.58;11.30;;;;;;;11.04;100.00;102341.59;4840858;29;20094;-73
2022/01/01 05:09:32;;;;;;;28.95;11.35;;;;;;;11.07;100.00;102336.22;4842150;29;20048;-74
2022/01/01 05:11:58;;;;;;;25.33;11.35;;;;;;;11.07;100.00;102344.19;4842198;29;20038;-73
2022/01/01 05:14:23;;;;;;;23.27;10.70;;;;;;;11.08;100.00;102334.47;4841773;29;20030;-73
2022/01/01 05:16:51;;;;;;;22.88;10.85;;;;;;;11.08;100.00;102335.31;4841890;29;20030;-73
2022/01/01 05:19:16;;;;;;;21.13;9.40;;;;;;;11.07;100.00;102328.28;4842019;29;20037;-73
2022/01/01 05:21:42;;;;;;;23.30;10.27;;;;;;;11.04;100.00;102341.59;4841679;29;20034;-72
2022/01/01 05:24:08;;;;;;;21.05;10.40;;;;;;;10.94;100.00;102334.78;4841687;29;20030;-73
2022/01/01 05:26:34;;;;;;;25.85;10.48;;;;;;;10.86;100.00;102329.66;4841824;29;20125;-73
2022/01/01 05:28:59;;;;;;;19.45;9.45;;;;;;;10.84;100.00;102327.94;4842011;29;20380;-73
2022/01/01 05:31:25;;;;;;;21.13;9.68;;;;;;;10.79;100.00;102333.31;4841892;29;20395;-73
2022/01/01 05:33:51;;;;;;;23.08;9.13;;;;;;;10.77;100.00;102327.19;4842086;29;20432;-73
2022/01/01 05:36:17;;;;;;;20.45;9.45;;;;;;;10.77;100.00;102313.97;4841000;29;20469;-74
2022/01/01 05:38:44;;;;;;;24.65;9.88;;;;;;;10.80;100.00;102311.22;4841677;29;20080;-73
2022/01/01 05:41:09;;;;;;;21.63;8.77;;;;;;;10.80;100.00;102314.72;4841896;29;20026;-74
2022/01/01 05:43:35;;;;;;;23.15;8.15;;;;;;;10.76;100.00;102309.56;4841909;29;20026;-73
2022/01/01 05:46:01;;;;;;;17.42;8.35;;;;;;;10.77;100.00;102314.81;4841596;29;20543;-78
2022/01/01 05:48:27;;;;;;;20.98;8.23;;;;;;;10.77;100.00;102316.59;4841286;29;20038;-78
2022/01/01 05:50:52;;;;;;;18.15;8.38;;;;;;;10.71;100.00;102320.25;4841108;29;20026;-76
2022/01/01 05:53:19;;;;;;;19.00;8.27;;;;;;;10.65;100.00;102326.56;4841652;29;20117;-74
2022/01/01 05:55:44;;;;;;;19.90;8.20;;;;;;;10.56;100.00;102323.22;4841638;29;20022;-74
2022/01/01 05:58:10;;;;;;;18.95;7.85;;;;;;;10.51;100.00;102320.66;4841660;29;20387;-73
2022/01/01 06:00:36;;;;;;;20.10;7.68;;;;;;;10.53;100.00;102318.00;4841670;29;20471;-73
2022/01/01 06:03:01;;;;;;;19.98;8.55;;;;;;;10.49;100.00;102326.00;4841277;29;20033;-73
2022/01/01 06:05:28;;;;;;;21.90;9.52;;;;;;;10.53;100.00;102332.09;4841738;29;20105;-74
2022/01/01 06:07:55;;;;;;;25.88;8.80;;;;;;;10.57;100.00;102330.28;4840580;29;20171;-75
2022/01/01 06:10:20;;;;;;;30.23;12.27;;;;;;;10.63;100.00;102324.84;4841590;29;20034;-77
2022/01/01 06:12:46;;;;;;;28.27;10.13;;;;;;;10.68;100.00;102328.28;4841580;29;20038;-73
2022/01/01 06:15:11;;;;;;;20.88;9.43;;;;;;;10.75;100.00;102332.50;4841845;29;20034;-73
2022/01/01 06:17:36;;;;;;;22.10;8.63;;;;;;;10.80;100.00;102325.34;4840985;29;20030;-74
2022/01/01 06:20:02;;;;;;;19.17;7.97;;;;;;;10.84;100.00;102338.53;4843299;29;20069;-73
2022/01/01 06:22:28;;;;;;;19.77;7.53;;;;;;;10.87;100.00;102342.00;4844856;29;20444;-73
2022/01/01 06:24:53;;;;;;;16.92;6.75;;;;;;;10.88;100.00;102341.09;4845096;29;20026;-73
2022/01/01 06:27:18;;;;;;;17.25;6.80;;;;;;;10.86;100.00;102336.69;4844761;29;20065;-73
2022/01/01 06:29:45;;;;;;;21.92;6.90;;;;;;;10.88;100.00;102334.91;4844583;29;20033;-73
2022/01/01 06:32:11;;;;;;;17.00;8.30;;;;;;;10.87;100.00;102342.00;4844752;29;20033;-73
2022/01/01 06:34:36;;;;;;;17.00;6.97;;;;;;;10.87;100.00;102334.03;4844754;29;20041;-73
2022/01/01 06:37:03;;;;;;;18.85;7.32;;;;;;;10.86;100.00;102328.75;4844649;29;20053;-73
2022/01/01 06:39:28;;;;;;;17.50;7.15;;;;;;;10.89;100.00;102344.59;4844423;29;20068;-76
2022/01/01 06:41:53;;;;;;;15.40;6.57;;;;;;;10.91;100.00;102334.84;4844893;29;20490;-75
2022/01/01 06:44:19;;;;;;;17.35;6.70;;;;;;;10.93;100.00;102339.22;4844523;29;20037;-77
2022/01/01 06:46:44;;;;;;;15.52;7.40;;;;;;;10.95;100.00;102339.16;4844726;29;20037;-78
2022/01/01 06:49:09;;;;;;;15.55;5.85;;;;;;;10.99;100.00;102331.09;4844128;29;20444;-77
2022/01/01 06:51:36;;;;;;;17.45;6.28;;;;;;;11.00;100.00;102342.59;4829796;29;20035;-73
2022/01/01 06:54:02;;;;;;;14.90;6.18;;;;;;;11.01;100.00;102330.19;4840017;29;20038;-73
2022/01/01 06:56:27;;;;;;;15.30;6.07;;;;;;;11.00;100.00;102337.28;4843359;29;20137;-72
2022/01/01 06:58:52;;;;;;;14.45;5.93;;;;;;;11.02;100.00;102338.09;4840585;29;20033;-74
2022/01/01 07:01:18;;;;;;;13.95;6.30;;;;;;;11.02;100.00;102345.19;4844281;29;20042;-73
2022/01/01 07:03:43;;;;;;;14.02;6.28;;;;;;;11.05;100.00;102345.13;4844746;29;20034;-74
2022/01/01 07:06:08;;;;;;;15.88;6.57;;;;;;;11.06;100.00;102341.56;4843208;29;20062;-73
2022/01/01 07:08:34;;;;;;;15.07;6.70;;;;;;;11.02;100.00;102342.56;4843779;29;20420;-74
2022/01/01 07:10:59;;;;;;;15.20;6.65;;;;;;;11.05;100.00;102355.72;4844491;29;20658;-74
2022/01/01 07:13:25;;;;;;;18.80;7.28;;;;;;;11.00;100.00;102339.94;4843731;29;20033;-74
2022/01/01 07:15:50;;;;;;;14.10;6.85;;;;;;;11.01;100.00;102333.75;4844198;29;20025;-74
2022/01/01 07:18:16;;;;;;;17.42;7.10;;;;;;;10.99;100.00;102336.41;4844474;29;20065;-74
2022/01/01 07:20:41;;;;;;;15.30;7.00;;;;;;;10.98;100.00;102337.34;4843745;29;20034;-74
2022/01/01 07:23:07;;;;;;;24.65;7.80;;;;;;;10.95;100.00;102344.47;4843904;29;20053;-74
2022/01/01 07:25:32;;;;;;;17.05;7.88;;;;;;;10.95;100.00;102349.78;4844430;29;20030;-74
2022/01/01 07:27:57;;;;;;;17.02;8.05;;;;;;;10.96;100.00;102348.88;4844088;29;20022;-73
2022/01/01 07:30:23;;;;;;;21.05;8.48;;;;;;;10.97;100.00;102353.25;4843754;29;20375;-74
2022/01/01 07:32:49;;;;;;;14.57;7.82;;;;;;;10.95;100.00;102357.72;4844294;29;20061;-74
2022/01/01 07:35:16;;;;;;;16.73;7.63;;;;;;;10.95;100.00;102347.97;4843975;29;20036;-73
2022/01/01 07:37:41;;;;;;;16.88;7.93;;;;;;;11.01;100.00;102362.00;4843205;29;20517;-74
2022/01/01 07:40:11;;;;;;;16.73;7.85;;;;;;;10.99;100.00;102352.31;4843705;29;20042;-74
2022/01/01 07:42:36;;;;;;;18.77;7.88;;;;;;;11.02;100.00;102371.72;4844064;29;20033;-74
2022/01/01 07:45:03;;;;;;;19.13;7.50;;;;;;;11.02;100.00;102353.16;4843533;29;20387;-75
2022/01/01 07:47:28;;;;;;;16.48;7.50;;;;;;;11.04;100.00;102359.31;4843875;29;20522;-74
2022/01/01 07:49:54;;;;;;;23.25;8.18;;;;;;;11.02;100.00;102359.31;4843488;29;20034;-74
2022/01/01 07:52:19;;;;;;;21.02;8.00;;;;;;;11.05;100.00;102356.63;4843130;29;20029;-74
2022/01/01 07:54:44;;;;;;;19.40;7.75;;;;;;;10.99;100.00;102356.75;4843506;29;20086;-74
2022/01/01 07:57:10;;;;;;;16.63;7.43;;;;;;;10.96;100.00;102348.88;4843344;29;20559;-75
2022/01/01 07:59:35;;;;;;;18.88;8.48;;;;;;;10.97;100.00;102346.19;4842330;29;20037;-74
2022/01/01 08:02:00;;;;;;;19.55;7.78;;;;;;;10.95;100.00;102337.38;4843685;29;20022;-74
2022/01/01 08:04:26;;;;;;;17.73;8.88;;;;;;;10.98;100.00;102355.00;4843188;29;20025;-74
2022/01/01 08:06:51;;;;;;;18.33;8.52;;;;;;;10.99;100.00;102357.59;4828807;29;20050;-74
2022/01/01 08:09:16;;;;;;;17.95;8.95;;;;;;;10.98;100.00;102358.53;4825041;29;20472;-74
2022/01/01 08:11:42;;;;;;;19.98;8.82;;;;;;;10.95;100.00;102360.38;4835238;29;20028;-75
2022/01/01 08:14:08;;;;;;;18.10;8.73;;;;;;;10.98;100.00;102371.78;4843303;29;20114;-75
2022/01/01 08:16:34;;;;;;;16.20;8.30;;;;;;;10.99;100.00;102370.84;4842090;29;20138;-75
2022/01/01 08:18:59;;;;;;;15.77;8.25;;;;;;;11.01;100.00;102369.97;4842579;29;20487;-74
2022/01/01 08:21:24;;;;;;;20.13;8.90;;;;;;;11.01;100.00;102373.50;4842769;29;20052;-74
2022/01/01 08:23:49;;;;;;;16.00;8.45;;;;;;;11.03;100.00;102376.97;4841083;29;20030;-74
2022/01/01 08:26:15;;;;;;;18.50;8.55;;;;;;;11.03;100.00;102370.81;4842150;29;20045;-72
2022/01/01 08:28:41;;;;;;;21.83;9.30;;;;;;;11.01;100.00;102380.56;4839554;29;20471;-75
2022/01/01 08:31:07;;;;;;;18.10;9.05;;;;;;;11.02;100.00;102369.06;4843184;29;20170;-74
2022/01/01 08:33:32;;;;;;;17.42;8.55;;;;;;;11.04;100.00;102364.59;4827038;29;20039;-74
2022/01/01 08:35:58;;;;;;;23.05;9.27;;;;;;;11.01;100.00;102364.66;4824575;29;20118;-73
2022/01/01 08:38:23;;;;;;;16.70;8.90;;;;;;;11.00;100.00;102355.84;4826279;29;20019;-74
2022/01/01 08:40:48;;;;;;;20.05;9.40;;;;;;;10.97;100.00;102351.47;4838370;29;20034;-74
2022/01/01 08:43:14;;;;;;;20.65;9.45;;;;;;;10.91;100.00;102341.00;4841849;29;20040;-74
2022/01/01 08:45:39;;;;;;;21.13;10.35;;;;;;;10.87;100.00;102344.66;4843165;29;20069;-75
2022/01/01 08:48:06;;;;;;;18.88;9.75;;;;;;;10.85;100.00;102340.28;4842789;29;20543;-75
2022/01/01 08:50:31;;;;;;;21.58;9.13;;;;;;;10.84;100.00;102334.09;4838610;29;20034;-74
2022/01/01 08:52:57;;;;;;;24.38;9.55;;;;;;;10.84;100.00;102325.28;4840550;29;20089;-73
2022/01/01 08:55:24;;;;;;;18.20;9.77;;;;;;;10.81;100.00;102320.91;4842231;29;20038;-74
2022/01/01 08:57:49;;;;;;;20.42;10.00;;;;;;;10.80;100.00;102320.03;4842496;29;20038;-74
2022/01/01 09:00:15;;;;;;;17.92;9.80;;;;;;;10.82;100.00;102317.38;4841414;29;20029;-75
2022/01/01 09:02:41;;;;;;;17.25;9.68;;;;;;;10.87;100.00;102328.75;4832745;29;20479;-74
2022/01/01 09:05:06;;;;;;;19.42;9.90;;;;;;;10.90;100.00;102330.44;4842151;29;20048;-73
2022/01/01 09:07:32;;;;;;;21.13;10.65;;;;;;;10.89;100.00;102320.75;4841404;29;20068;-74
2022/01/01 09:09:58;;;;;;;19.02;10.13;;;;;;;10.92;100.00;102321.56;4840194;29;20395;-73
2022/01/01 09:12:28;;;;;;;23.60;10.68;;;;;;;10.89;100.00;102329.56;4840880;29;20132;-75
2022/01/01 09:14:54;;;;;;;22.92;10.93;;;;;;;10.91;100.00;102322.47;4834430;29;20113;-71
2022/01/01 09:17:20;;;;;;;21.60;11.02;;;;;;;10.89;100.00;102326.91;4839120;29;20078;-74
2022/01/01 09:19:45;;;;;;;21.95;11.40;;;;;;;10.86;100.00;102321.69;4841519;29;20084;-74
2022/01/01 09:22:11;;;;;;;24.50;12.30;;;;;;;10.78;100.00;102305.97;4840925;29;20034;-74
2022/01/01 09:24:36;;;;;;;25.33;12.77;;;;;;;10.72;100.00;102299.94;4840743;29;20034;-74
2022/01/01 09:27:03;;;;;;;29.98;13.18;;;;;;;10.72;100.00;102306.09;4840554;29;20072;-73
2022/01/01 09:29:28;;;;;;;41.72;16.75;;;;;;;10.70;100.00;102289.34;4838795;29;20060;-75
2022/01/01 09:31:54;;;;;;;32.67;16.25;;;;;;;10.68;100.00;102288.53;4834573;29;20475;-76
2022/01/01 09:34:19;;;;;;;33.10;17.55;;;;;;;10.71;100.00;102292.88;4824269;29;20073;-74
2022/01/01 09:36:47;;;;;;;34.17;17.83;;;;;;;10.70;100.00;102294.66;4829089;29;20046;-75
2022/01/01 09:39:12;;;;;;;37.65;17.52;;;;;;;10.68;100.00;102277.03;4840151;29;20387;-74
2022/01/01 09:41:41;;;;;;;36.58;17.88;;;;;;;10.64;100.00;102287.72;4836682;29;20034;-74
2022/01/01 09:44:12;;;;;;;37.92;18.17;;;;;;;10.56;100.00;102289.69;4824903;29;20510;-74
2022/01/01 09:46:39;;;;;;;40.53;19.02;;;;;;;10.57;100.00;102286.09;4841146;29;20026;-75
2022/01/01 09:49:04;;;;;;;36.22;18.08;;;;;;;10.62;100.00;102291.31;4840503;29;20022;-73
2022/01/01 09:51:29;;;;;;;39.83;18.85;;;;;;;10.67;100.00;102294.72;4838887;29;20034;-73
2022/01/01 09:53:55;;;;;;;39.25;19.00;;;;;;;10.65;100.00;102293.88;4825310;29;20564;-74
2022/01/01 09:56:20;;;;;;;41.03;20.02;;;;;;;10.61;100.00;102298.41;4831509;29;20480;-76
2022/01/01 09:58:45;;;;;;;50.92;21.30;;;;;;;10.60;100.00;102294.00;4842231;29;20030;-76
2022/01/01 10:01:11;;;;;;;42.15;20.05;;;;;;;10.60;100.00;102285.16;4837894;29;20046;-75
2022/01/01 10:03:41;;;;;;;49.05;20.85;;;;;;;10.73;100.00;102286.66;4839997;29;20121;-76
2022/01/01 10:06:15;;;;;;;44.33;19.80;;;;;;;10.84;100.00;102289.03;4844035;29;20082;-75
2022/01/01 10:08:44;;;;;;;38.42;19.13;;;;;;;11.07;100.00;102291.16;4809261;29;1056846;-75
2022/01/01 10:11:09;;;;;;;43.58;19.55;;;;;;;11.08;100.00;102289.41;4845067;29;20110;-75
2022/01/01 10:13:38;;;;;;;38.78;19.92;;;;;;;11.03;100.00;102292.13;4844091;29;20376;-74
2022/01/01 10:16:06;;;;;;;42.28;20.35;;;;;;;11.09;100.00;102288.50;4844946;29;20062;-75
2022/01/01 10:18:37;;;;;;;41.33;20.05;;;;;;;11.10;100.00;102299.06;4845444;29;20104;-75
2022/01/01 10:21:09;;;;;;;39.17;20.85;;;;;;;11.13;100.00;102283.06;4845053;29;20483;-75
2022/01/01 10:23:35;;;;;;;38.67;19.88;;;;;;;11.25;100.00;102297.81;4844648;29;20034;-75
2022/01/01 10:29:12;;;;;;;41.45;19.70;;;;;;;11.33;100.00;102305.59;4844888;29;20573;-76
2022/01/01 10:31:39;;;;;;;42.10;20.15;;;;;;;11.44;100.00;102287.59;4845333;29;20030;-76
2022/01/01 10:34:14;;;;;;;34.45;18.85;;;;;;;11.84;100.00;102283.06;4844467;29;20033;-75
2022/01/01 10:36:39;;;;;;;33.30;18.23;;;;;;;12.17;100.00;102296.34;4844403;29;20030;-75
2022/01/01 10:39:13;;;;;;;34.55;18.63;;;;;;;12.52;100.00;102293.56;4844977;29;20502;-75
2022/01/01 10:42:09;;;;;;;34.53;17.80;;;;;;;13.10;96.61;102288.25;4844877;29;20030;-74
2022/01/01 10:44:39;;;;;;;31.70;16.58;;;;;;;13.34;93.27;102275.03;4844207;29;20057;-76
2022/01/01 10:47:21;;;;;;;27.98;16.13;;;;;;;13.07;93.62;102275.06;4844547;29;20082;-76
2022/01/01 10:52:23;;;;;;;27.13;15.25;;;;;;;12.54;96.99;102284.63;4844471;29;20206;-75
2022/01/01 10:54:50;;;;;;;32.83;16.48;;;;;;;12.76;96.92;102290.19;4843897;29;20428;-76
2022/01/01 10:57:26;;;;;;;31.63;15.68;;;;;;;12.81;95.72;102278.53;4843642;29;20368;-75
2022/01/01 11:00:02;;;;;;;27.38;15.40;;;;;;;13.07;95.20;102272.41;4844508;29;20098;-75
2022/01/01 11:02:32;;;;;;;26.10;15.10;;;;;;;13.36;93.46;102249.25;4843150;29;20038;-76
2022/01/01 11:04:57;;;;;;;24.75;14.48;;;;;;;13.30;92.90;102268.97;4843082;29;20527;-75
2022/01/01 11:07:27;;;;;;;29.77;15.52;;;;;;;12.97;94.29;102271.81;4843648;29;20054;-76
2022/01/01 11:09:54;;;;;;;25.67;14.73;;;;;;;12.78;95.18;102260.91;4844271;29;20034;-75
2022/01/01 11:12:21;;;;;;;27.42;14.00;;;;;;;12.81;95.80;102257.28;4844234;29;20084;-73